sensor_id;sensor_type;location;lat;lon;timestamp;P1;durP1;ratioP1;P2;durP2;ratioP2
22308;SDS011;11322;50.858;-1.778;2024-03-08T00:00:33;71.0;;;24.5;;
22308;SDS011;11322;50.858;-1.778;2024-03-08T00:05:33;74.9;;;29.05;;
22308;SDS011;11322;50.858;-1.778;2024-03-08T00:10:33;70.95;;;27.5;;
22308;SDS011;11322;50.858;-1.778;2024-03-08T00:15:33;66.65;;;26.3;;
22308;SDS011;11322;50.858;-1.778;2024-03-08T00:20:33;64.25;;;28.15;;
22308;SDS011;11322;50.858;-1.778;2024-03-08T00:25:33;76.5;;;30.2;;
22308;SDS011;11322;50.858;-1.778;2024-03-08T00:30:33;80.3;;;28.5;;
22308;SDS011;11322;50.858;-1.778;2024-03-08T00:35:33;65.7;;;24.8;;
22308;SDS011;11322;50.858;-1.778;2024-03-08T00:40:33;64.4;;;24.0;;
22308;SDS011;11322;50.858;-1.778;2024-03-08T00:45:33;70.1;;;27.9;;
22308;SDS011;11322;50.858;-1.778;2024-03-08T00:50:33;61.8;;;24.6;;
22308;SDS011;11322;50.858;-1.778;2024-03-08T00:55:33;75.5;;;28.65;;
22308;SDS011;11322;50.858;-1.778;2024-03-08T01:00:33;72.95;;;29.1;;
22308;SDS011;11322;50.858;-1.778;2024-03-08T01:05:33;71.05;;;27.2;;
22308;SDS011;11322;50.858;-1.778;2024-03-08T01:10:33;78.25;;;30.15;;
22308;SDS011;11322;50.858;-1.778;2024-03-08T01:15:33;76.4;;;27.2;;
22308;SDS011;11322;50.858;-1.778;2024-03-08T01:20:33;84.25;;;31.75;;
22308;SDS011;11322;50.858;-1.778;2024-03-08T01:25:33;90.3;;;33.55;;
22308;SDS011;11322;50.858;-1.778;2024-03-08T01:30:33;70.7;;;27.4;;
22308;SDS011;11322;50.858;-1.778;2024-03-08T01:35:33;88.4;;;30.5;;
22308;SDS011;11322;50.858;-1.778;2024-03-08T01:40:33;89.6;;;31.35;;
22308;SDS011;11322;50.858;-1.778;2024-03-08T01:45:33;74.45;;;29.95;;
22308;SDS011;11322;50.858;-1.778;2024-03-08T01:50:33;74.6;;;28.05;;
22308;SDS011;11322;50.858;-1.778;2024-03-08T01:55:33;78.65;;;28.75;;
22308;SDS011;11322;50.858;-1.778;2024-03-08T02:00:33;74.75;;;28.05;;
22308;SDS011;11322;50.858;-1.778;2024-03-08T02:05:33;80.25;;;29.65;;
22308;SDS011;11322;50.858;-1.778;2024-03-08T02:10:33;80.75;;;28.2;;
22308;SDS011;11322;50.858;-1.778;2024-03-08T02:15:53;74.6;;;28.4;;
22308;SDS011;11322;50.858;-1.778;2024-03-08T02:20:33;75.55;;;27.1;;
22308;SDS011;11322;50.858;-1.778;2024-03-08T02:25:33;82.3;;;30.1;;
22308;SDS011;11322;50.858;-1.778;2024-03-08T02:30:33;79.05;;;27.7;;
22308;SDS011;11322;50.858;-1.778;2024-03-08T02:41:09;96.25;;;33.55;;
22308;SDS011;11322;50.858;-1.778;2024-03-08T02:45:33;88.25;;;32.7;;
22308;SDS011;11322;50.858;-1.778;2024-03-08T02:50:33;85.7;;;30.5;;
22308;SDS011;11322;50.858;-1.778;2024-03-08T02:55:33;83.15;;;29.7;;
22308;SDS011;11322;50.858;-1.778;2024-03-08T03:00:33;93.65;;;34.35;;
22308;SDS011;11322;50.858;-1.778;2024-03-08T03:05:33;97.1;;;35.3;;
22308;SDS011;11322;50.858;-1.778;2024-03-08T03:10:33;85.8;;;28.95;;
22308;SDS011;11322;50.858;-1.778;2024-03-08T03:15:33;77.45;;;28.2;;
22308;SDS011;11322;50.858;-1.778;2024-03-08T03:20:33;74.05;;;28.6;;
22308;SDS011;11322;50.858;-1.778;2024-03-08T03:25:33;93.25;;;33.5;;
22308;SDS011;11322;50.858;-1.778;2024-03-08T03:30:33;83.45;;;28.7;;
22308;SDS011;11322;50.858;-1.778;2024-03-08T03:35:33;79.9;;;29.1;;
22308;SDS011;11322;50.858;-1.778;2024-03-08T03:40:33;82.5;;;31.25;;
22308;SDS011;11322;50.858;-1.778;2024-03-08T03:45:33;77.9;;;28.6;;
22308;SDS011;11322;50.858;-1.778;2024-03-08T03:50:33;97.35;;;37.4;;
22308;SDS011;11322;50.858;-1.778;2024-03-08T03:55:33;95.85;;;33.0;;
22308;SDS011;11322;50.858;-1.778;2024-03-08T04:00:33;82.3;;;27.65;;
22308;SDS011;11322;50.858;-1.778;2024-03-08T04:05:33;85.6;;;32.6;;
22308;SDS011;11322;50.858;-1.778;2024-03-08T04:10:33;82.35;;;27.35;;
22308;SDS011;11322;50.858;-1.778;2024-03-08T04:15:33;86.0;;;27.9;;
22308;SDS011;11322;50.858;-1.778;2024-03-08T04:20:33;71.1;;;25.75;;
22308;SDS011;11322;50.858;-1.778;2024-03-08T04:25:33;87.75;;;29.8;;
22308;SDS011;11322;50.858;-1.778;2024-03-08T04:30:33;92.3;;;33.8;;
22308;SDS011;11322;50.858;-1.778;2024-03-08T04:35:33;76.3;;;26.3;;
22308;SDS011;11322;50.858;-1.778;2024-03-08T04:40:33;101.75;;;37.1;;
22308;SDS011;11322;50.858;-1.778;2024-03-08T04:45:33;94.75;;;32.8;;
22308;SDS011;11322;50.858;-1.778;2024-03-08T04:50:33;71.95;;;27.85;;
22308;SDS011;11322;50.858;-1.778;2024-03-08T04:55:33;84.45;;;29.15;;
22308;SDS011;11322;50.858;-1.778;2024-03-08T05:00:33;84.1;;;29.2;;
22308;SDS011;11322;50.858;-1.778;2024-03-08T05:05:33;93.4;;;30.9;;
22308;SDS011;11322;50.858;-1.778;2024-03-08T05:10:33;80.6;;;30.7;;
22308;SDS011;11322;50.858;-1.778;2024-03-08T05:15:33;79.4;;;28.95;;
22308;SDS011;11322;50.858;-1.778;2024-03-08T05:20:33;69.9;;;26.1;;
22308;SDS011;11322;50.858;-1.778;2024-03-08T05:25:33;93.2;;;32.65;;
22308;SDS011;11322;50.858;-1.778;2024-03-08T05:30:33;81.05;;;30.25;;
22308;SDS011;11322;50.858;-1.778;2024-03-08T05:35:33;71.3;;;24.05;;
22308;SDS011;11322;50.858;-1.778;2024-03-08T05:40:33;89.2;;;28.6;;
22308;SDS011;11322;50.858;-1.778;2024-03-08T05:45:33;66.05;;;25.9;;
22308;SDS011;11322;50.858;-1.778;2024-03-08T05:50:33;79.45;;;28.15;;
22308;SDS011;11322;50.858;-1.778;2024-03-08T05:55:33;68.5;;;24.65;;
22308;SDS011;11322;50.858;-1.778;2024-03-08T06:00:33;81.3;;;25.25;;
22308;SDS011;11322;50.858;-1.778;2024-03-08T06:05:33;72.1;;;26.2;;
22308;SDS011;11322;50.858;-1.778;2024-03-08T06:10:33;81.6;;;30.5;;
22308;SDS011;11322;50.858;-1.778;2024-03-08T06:15:33;81.65;;;26.4;;
22308;SDS011;11322;50.858;-1.778;2024-03-08T06:20:33;77.85;;;25.9;;
22308;SDS011;11322;50.858;-1.778;2024-03-08T06:25:33;84.5;;;29.9;;
22308;SDS011;11322;50.858;-1.778;2024-03-08T06:30:33;79.0;;;29.65;;
22308;SDS011;11322;50.858;-1.778;2024-03-08T06:35:33;81.9;;;32.9;;
22308;SDS011;11322;50.858;-1.778;2024-03-08T06:40:33;82.95;;;30.75;;
22308;SDS011;11322;50.858;-1.778;2024-03-08T06:45:33;77.65;;;29.55;;
22308;SDS011;11322;50.858;-1.778;2024-03-08T06:50:34;85.25;;;31.2;;
22308;SDS011;11322;50.858;-1.778;2024-03-08T06:55:33;79.5;;;30.95;;
22308;SDS011;11322;50.858;-1.778;2024-03-08T07:00:33;74.95;;;28.2;;
22308;SDS011;11322;50.858;-1.778;2024-03-08T07:05:34;73.45;;;27.95;;
22308;SDS011;11322;50.858;-1.778;2024-03-08T07:10:35;77.55;;;31.15;;
22308;SDS011;11322;50.858;-1.778;2024-03-08T07:15:33;74.1;;;27.15;;
22308;SDS011;11322;50.858;-1.778;2024-03-08T07:20:33;69.35;;;26.85;;
22308;SDS011;11322;50.858;-1.778;2024-03-08T07:25:33;67.55;;;25.85;;
22308;SDS011;11322;50.858;-1.778;2024-03-08T07:30:33;77.7;;;28.75;;
22308;SDS011;11322;50.858;-1.778;2024-03-08T07:35:33;71.15;;;27.25;;
22308;SDS011;11322;50.858;-1.778;2024-03-08T07:40:35;64.05;;;26.55;;
22308;SDS011;11322;50.858;-1.778;2024-03-08T07:45:33;54.35;;;23.0;;
22308;SDS011;11322;50.858;-1.778;2024-03-08T07:50:33;67.1;;;22.8;;
22308;SDS011;11322;50.858;-1.778;2024-03-08T07:55:33;58.25;;;22.4;;
22308;SDS011;11322;50.858;-1.778;2024-03-08T08:00:33;57.05;;;23.05;;
22308;SDS011;11322;50.858;-1.778;2024-03-08T08:05:33;64.85;;;25.15;;
22308;SDS011;11322;50.858;-1.778;2024-03-08T08:10:33;59.65;;;21.6;;
22308;SDS011;11322;50.858;-1.778;2024-03-08T08:15:33;52.3;;;21.5;;
22308;SDS011;11322;50.858;-1.778;2024-03-08T08:20:33;48.05;;;17.3;;
22308;SDS011;11322;50.858;-1.778;2024-03-08T08:25:33;62.4;;;25.0;;
22308;SDS011;11322;50.858;-1.778;2024-03-08T08:30:33;64.3;;;25.6;;
22308;SDS011;11322;50.858;-1.778;2024-03-08T08:35:33;69.9;;;27.35;;
22308;SDS011;11322;50.858;-1.778;2024-03-08T08:40:33;73.85;;;29.05;;
22308;SDS011;11322;50.858;-1.778;2024-03-08T08:45:33;49.35;;;22.9;;
22308;SDS011;11322;50.858;-1.778;2024-03-08T08:50:33;55.2;;;21.6;;
22308;SDS011;11322;50.858;-1.778;2024-03-08T08:55:33;54.55;;;21.2;;
22308;SDS011;11322;50.858;-1.778;2024-03-08T09:00:33;61.1;;;26.35;;
22308;SDS011;11322;50.858;-1.778;2024-03-08T09:05:33;57.85;;;24.75;;
22308;SDS011;11322;50.858;-1.778;2024-03-08T09:10:33;52.6;;;20.35;;
22308;SDS011;11322;50.858;-1.778;2024-03-08T09:15:33;60.65;;;23.95;;
22308;SDS011;11322;50.858;-1.778;2024-03-08T09:20:33;51.25;;;22.95;;
22308;SDS011;11322;50.858;-1.778;2024-03-08T09:25:33;54.6;;;20.0;;
22308;SDS011;11322;50.858;-1.778;2024-03-08T09:30:33;53.6;;;19.85;;
22308;SDS011;11322;50.858;-1.778;2024-03-08T09:35:33;54.05;;;23.35;;
22308;SDS011;11322;50.858;-1.778;2024-03-08T09:40:33;55.9;;;21.15;;
22308;SDS011;11322;50.858;-1.778;2024-03-08T09:45:35;56.85;;;22.75;;
22308;SDS011;11322;50.858;-1.778;2024-03-08T09:50:33;38.6;;;18.0;;
22308;SDS011;11322;50.858;-1.778;2024-03-08T09:55:33;51.95;;;22.4;;
22308;SDS011;11322;50.858;-1.778;2024-03-08T10:00:33;50.2;;;19.4;;
22308;SDS011;11322;50.858;-1.778;2024-03-08T10:05:33;45.6;;;20.4;;
22308;SDS011;11322;50.858;-1.778;2024-03-08T10:10:33;44.8;;;17.75;;
22308;SDS011;11322;50.858;-1.778;2024-03-08T10:15:33;51.15;;;20.9;;
22308;SDS011;11322;50.858;-1.778;2024-03-08T10:20:33;50.2;;;21.2;;
22308;SDS011;11322;50.858;-1.778;2024-03-08T10:25:33;41.6;;;18.7;;
22308;SDS011;11322;50.858;-1.778;2024-03-08T10:30:33;51.55;;;21.2;;
22308;SDS011;11322;50.858;-1.778;2024-03-08T10:35:33;38.15;;;15.75;;
22308;SDS011;11322;50.858;-1.778;2024-03-08T10:40:33;50.45;;;21.3;;
22308;SDS011;11322;50.858;-1.778;2024-03-08T10:45:34;54.25;;;20.1;;
22308;SDS011;11322;50.858;-1.778;2024-03-08T10:50:33;47.6;;;21.75;;
22308;SDS011;11322;50.858;-1.778;2024-03-08T10:55:33;39.5;;;15.9;;
22308;SDS011;11322;50.858;-1.778;2024-03-08T11:00:33;46.4;;;20.6;;
22308;SDS011;11322;50.858;-1.778;2024-03-08T11:05:36;48.9;;;20.25;;
22308;SDS011;11322;50.858;-1.778;2024-03-08T11:10:33;44.45;;;18.15;;
22308;SDS011;11322;50.858;-1.778;2024-03-08T11:15:33;37.9;;;16.0;;
22308;SDS011;11322;50.858;-1.778;2024-03-08T11:20:33;40.95;;;16.05;;
22308;SDS011;11322;50.858;-1.778;2024-03-08T11:25:34;42.9;;;15.0;;
22308;SDS011;11322;50.858;-1.778;2024-03-08T11:30:33;33.3;;;14.05;;
22308;SDS011;11322;50.858;-1.778;2024-03-08T11:35:33;30.2;;;13.85;;
22308;SDS011;11322;50.858;-1.778;2024-03-08T11:40:33;30.45;;;13.1;;
22308;SDS011;11322;50.858;-1.778;2024-03-08T11:45:34;34.9;;;15.95;;
22308;SDS011;11322;50.858;-1.778;2024-03-08T11:50:33;31.2;;;11.45;;
22308;SDS011;11322;50.858;-1.778;2024-03-08T11:55:33;37.2;;;13.5;;
22308;SDS011;11322;50.858;-1.778;2024-03-08T12:00:33;24.0;;;10.15;;
22308;SDS011;11322;50.858;-1.778;2024-03-08T12:05:33;29.55;;;13.85;;
22308;SDS011;11322;50.858;-1.778;2024-03-08T12:10:33;29.05;;;13.05;;
22308;SDS011;11322;50.858;-1.778;2024-03-08T12:13:46;32.1;;;17.05;;
22308;SDS011;11322;50.858;-1.778;2024-03-08T12:15:33;32.4;;;15.3;;
22308;SDS011;11322;50.858;-1.778;2024-03-08T12:20:33;28.95;;;15.3;;
22308;SDS011;11322;50.858;-1.778;2024-03-08T12:25:33;24.45;;;7.95;;
22308;SDS011;11322;50.858;-1.778;2024-03-08T12:30:33;26.6;;;11.95;;
22308;SDS011;11322;50.858;-1.778;2024-03-08T12:35:33;24.6;;;11.45;;
22308;SDS011;11322;50.858;-1.778;2024-03-08T12:40:33;29.15;;;11.75;;
22308;SDS011;11322;50.858;-1.778;2024-03-08T12:45:33;27.85;;;14.9;;
22308;SDS011;11322;50.858;-1.778;2024-03-08T12:50:33;28.05;;;13.95;;
22308;SDS011;11322;50.858;-1.778;2024-03-08T12:55:33;26.7;;;13.95;;
22308;SDS011;11322;50.858;-1.778;2024-03-08T13:00:33;24.95;;;10.45;;
22308;SDS011;11322;50.858;-1.778;2024-03-08T13:05:33;18.05;;;9.2;;
22308;SDS011;11322;50.858;-1.778;2024-03-08T13:10:33;20.6;;;7.45;;
22308;SDS011;11322;50.858;-1.778;2024-03-08T13:15:33;13.35;;;6.85;;
22308;SDS011;11322;50.858;-1.778;2024-03-08T13:20:33;19.4;;;9.9;;
22308;SDS011;11322;50.858;-1.778;2024-03-08T13:25:33;21.35;;;8.6;;
22308;SDS011;11322;50.858;-1.778;2024-03-08T13:30:33;20.85;;;9.95;;
22308;SDS011;11322;50.858;-1.778;2024-03-08T13:35:33;23.55;;;12.8;;
22308;SDS011;11322;50.858;-1.778;2024-03-08T13:40:33;24.35;;;10.15;;
22308;SDS011;11322;50.858;-1.778;2024-03-08T13:45:33;25.05;;;11.55;;
22308;SDS011;11322;50.858;-1.778;2024-03-08T13:50:33;17.25;;;8.2;;
22308;SDS011;11322;50.858;-1.778;2024-03-08T13:55:33;20.55;;;9.65;;
22308;SDS011;11322;50.858;-1.778;2024-03-08T14:00:33;18.1;;;8.15;;
22308;SDS011;11322;50.858;-1.778;2024-03-08T14:05:33;24.5;;;8.95;;
22308;SDS011;11322;50.858;-1.778;2024-03-08T14:10:33;18.0;;;9.45;;
22308;SDS011;11322;50.858;-1.778;2024-03-08T14:15:33;21.45;;;9.35;;
22308;SDS011;11322;50.858;-1.778;2024-03-08T14:20:33;19.9;;;11.9;;
22308;SDS011;11322;50.858;-1.778;2024-03-08T14:25:33;16.85;;;8.85;;
22308;SDS011;11322;50.858;-1.778;2024-03-08T14:30:33;22.15;;;10.4;;
22308;SDS011;11322;50.858;-1.778;2024-03-08T14:35:33;20.7;;;9.75;;
22308;SDS011;11322;50.858;-1.778;2024-03-08T14:40:33;14.0;;;7.05;;
22308;SDS011;11322;50.858;-1.778;2024-03-08T14:45:33;16.85;;;7.8;;
22308;SDS011;11322;50.858;-1.778;2024-03-08T14:50:33;20.7;;;11.15;;
22308;SDS011;11322;50.858;-1.778;2024-03-08T14:55:33;18.45;;;8.4;;
22308;SDS011;11322;50.858;-1.778;2024-03-08T15:00:33;13.95;;;6.65;;
22308;SDS011;11322;50.858;-1.778;2024-03-08T15:05:33;17.25;;;6.55;;
22308;SDS011;11322;50.858;-1.778;2024-03-08T15:10:33;24.7;;;8.6;;
22308;SDS011;11322;50.858;-1.778;2024-03-08T15:15:33;15.65;;;7.2;;
22308;SDS011;11322;50.858;-1.778;2024-03-08T15:20:33;21.4;;;10.0;;
22308;SDS011;11322;50.858;-1.778;2024-03-08T15:25:33;18.6;;;7.3;;
22308;SDS011;11322;50.858;-1.778;2024-03-08T15:30:33;17.55;;;8.2;;
22308;SDS011;11322;50.858;-1.778;2024-03-08T15:35:33;19.1;;;9.55;;
22308;SDS011;11322;50.858;-1.778;2024-03-08T15:40:33;23.1;;;10.3;;
22308;SDS011;11322;50.858;-1.778;2024-03-08T15:45:33;21.85;;;10.4;;
22308;SDS011;11322;50.858;-1.778;2024-03-08T15:50:33;21.7;;;8.7;;
22308;SDS011;11322;50.858;-1.778;2024-03-08T15:55:33;17.55;;;8.85;;
22308;SDS011;11322;50.858;-1.778;2024-03-08T16:00:33;19.55;;;8.6;;
22308;SDS011;11322;50.858;-1.778;2024-03-08T16:05:33;21.35;;;9.25;;
22308;SDS011;11322;50.858;-1.778;2024-03-08T16:10:33;22.05;;;12.3;;
22308;SDS011;11322;50.858;-1.778;2024-03-08T16:15:33;21.55;;;9.4;;
22308;SDS011;11322;50.858;-1.778;2024-03-08T16:20:33;17.8;;;9.95;;
22308;SDS011;11322;50.858;-1.778;2024-03-08T16:25:33;18.7;;;7.1;;
22308;SDS011;11322;50.858;-1.778;2024-03-08T16:30:33;23.75;;;10.85;;
22308;SDS011;11322;50.858;-1.778;2024-03-08T16:35:33;17.35;;;9.8;;
22308;SDS011;11322;50.858;-1.778;2024-03-08T16:40:33;22.75;;;10.25;;
22308;SDS011;11322;50.858;-1.778;2024-03-08T16:45:33;25.2;;;10.85;;
22308;SDS011;11322;50.858;-1.778;2024-03-08T16:50:33;21.65;;;8.85;;
22308;SDS011;11322;50.858;-1.778;2024-03-08T16:55:33;21.3;;;10.3;;
22308;SDS011;11322;50.858;-1.778;2024-03-08T17:00:33;27.35;;;13.75;;
22308;SDS011;11322;50.858;-1.778;2024-03-08T17:05:33;27.65;;;10.7;;
22308;SDS011;11322;50.858;-1.778;2024-03-08T17:10:34;25.1;;;12.0;;
22308;SDS011;11322;50.858;-1.778;2024-03-08T17:15:33;30.25;;;13.8;;
22308;SDS011;11322;50.858;-1.778;2024-03-08T17:20:33;27.55;;;13.75;;
22308;SDS011;11322;50.858;-1.778;2024-03-08T17:25:33;33.35;;;15.35;;
22308;SDS011;11322;50.858;-1.778;2024-03-08T17:30:33;30.4;;;13.65;;
22308;SDS011;11322;50.858;-1.778;2024-03-08T17:35:33;34.85;;;14.15;;
22308;SDS011;11322;50.858;-1.778;2024-03-08T17:40:33;39.65;;;18.2;;
22308;SDS011;11322;50.858;-1.778;2024-03-08T17:45:34;40.15;;;18.9;;
22308;SDS011;11322;50.858;-1.778;2024-03-08T17:50:33;45.9;;;20.9;;
22308;SDS011;11322;50.858;-1.778;2024-03-08T17:55:33;48.4;;;19.5;;
22308;SDS011;11322;50.858;-1.778;2024-03-08T18:00:33;42.45;;;19.95;;
22308;SDS011;11322;50.858;-1.778;2024-03-08T18:05:33;42.9;;;19.55;;
22308;SDS011;11322;50.858;-1.778;2024-03-08T18:10:33;48.9;;;20.45;;
22308;SDS011;11322;50.858;-1.778;2024-03-08T18:15:33;53.95;;;24.5;;
22308;SDS011;11322;50.858;-1.778;2024-03-08T18:20:33;49.0;;;22.95;;
22308;SDS011;11322;50.858;-1.778;2024-03-08T18:25:33;46.65;;;21.0;;
22308;SDS011;11322;50.858;-1.778;2024-03-08T18:30:33;49.45;;;22.5;;
22308;SDS011;11322;50.858;-1.778;2024-03-08T18:35:33;42.4;;;19.55;;
22308;SDS011;11322;50.858;-1.778;2024-03-08T18:40:33;52.95;;;26.35;;
22308;SDS011;11322;50.858;-1.778;2024-03-08T18:45:33;48.95;;;23.05;;
22308;SDS011;11322;50.858;-1.778;2024-03-08T18:50:33;45.0;;;19.4;;
22308;SDS011;11322;50.858;-1.778;2024-03-08T18:55:33;51.0;;;23.45;;
22308;SDS011;11322;50.858;-1.778;2024-03-08T19:00:33;43.35;;;18.95;;
22308;SDS011;11322;50.858;-1.778;2024-03-08T19:05:33;48.45;;;19.4;;
22308;SDS011;11322;50.858;-1.778;2024-03-08T19:10:33;47.4;;;21.15;;
22308;SDS011;11322;50.858;-1.778;2024-03-08T19:15:33;50.3;;;21.15;;
22308;SDS011;11322;50.858;-1.778;2024-03-08T19:20:33;51.65;;;21.55;;
22308;SDS011;11322;50.858;-1.778;2024-03-08T19:25:34;50.05;;;21.25;;
22308;SDS011;11322;50.858;-1.778;2024-03-08T19:30:33;59.0;;;29.85;;
22308;SDS011;11322;50.858;-1.778;2024-03-08T19:35:33;46.45;;;19.2;;
22308;SDS011;11322;50.858;-1.778;2024-03-08T19:40:33;60.75;;;23.95;;
22308;SDS011;11322;50.858;-1.778;2024-03-08T19:45:33;60.5;;;25.65;;
22308;SDS011;11322;50.858;-1.778;2024-03-08T19:50:33;59.45;;;25.8;;
22308;SDS011;11322;50.858;-1.778;2024-03-08T19:55:34;57.25;;;25.2;;
22308;SDS011;11322;50.858;-1.778;2024-03-08T20:00:33;58.15;;;24.05;;
22308;SDS011;11322;50.858;-1.778;2024-03-08T20:05:33;59.35;;;25.6;;
22308;SDS011;11322;50.858;-1.778;2024-03-08T20:10:34;68.75;;;28.85;;
22308;SDS011;11322;50.858;-1.778;2024-03-08T20:15:33;66.5;;;28.0;;
22308;SDS011;11322;50.858;-1.778;2024-03-08T20:20:33;61.4;;;27.65;;
22308;SDS011;11322;50.858;-1.778;2024-03-08T20:25:33;62.35;;;26.1;;
22308;SDS011;11322;50.858;-1.778;2024-03-08T20:30:33;58.8;;;23.5;;
22308;SDS011;11322;50.858;-1.778;2024-03-08T20:35:33;58.4;;;21.4;;
22308;SDS011;11322;50.858;-1.778;2024-03-08T20:40:33;63.6;;;25.05;;
22308;SDS011;11322;50.858;-1.778;2024-03-08T20:45:33;52.35;;;23.5;;
22308;SDS011;11322;50.858;-1.778;2024-03-08T20:50:33;66.15;;;26.05;;
22308;SDS011;11322;50.858;-1.778;2024-03-08T20:55:33;61.85;;;23.55;;
22308;SDS011;11322;50.858;-1.778;2024-03-08T21:00:33;68.5;;;25.95;;
22308;SDS011;11322;50.858;-1.778;2024-03-08T21:05:34;68.3;;;27.4;;
22308;SDS011;11322;50.858;-1.778;2024-03-08T21:10:33;50.35;;;19.5;;
22308;SDS011;11322;50.858;-1.778;2024-03-08T21:15:33;65.1;;;27.6;;
22308;SDS011;11322;50.858;-1.778;2024-03-08T21:20:33;72.75;;;28.2;;
22308;SDS011;11322;50.858;-1.778;2024-03-08T21:25:33;63.5;;;25.2;;
22308;SDS011;11322;50.858;-1.778;2024-03-08T21:30:33;66.95;;;23.75;;
22308;SDS011;11322;50.858;-1.778;2024-03-08T21:35:33;70.7;;;27.75;;
22308;SDS011;11322;50.858;-1.778;2024-03-08T21:40:33;68.4;;;24.5;;
22308;SDS011;11322;50.858;-1.778;2024-03-08T21:45:33;65.9;;;25.8;;
22308;SDS011;11322;50.858;-1.778;2024-03-08T21:50:33;71.95;;;24.65;;
22308;SDS011;11322;50.858;-1.778;2024-03-08T21:55:33;72.05;;;23.75;;
22308;SDS011;11322;50.858;-1.778;2024-03-08T22:00:33;64.3;;;23.45;;
22308;SDS011;11322;50.858;-1.778;2024-03-08T22:05:33;62.55;;;24.7;;
22308;SDS011;11322;50.858;-1.778;2024-03-08T22:10:33;68.6;;;28.25;;
22308;SDS011;11322;50.858;-1.778;2024-03-08T22:15:33;60.8;;;23.95;;
22308;SDS011;11322;50.858;-1.778;2024-03-08T22:20:33;54.9;;;22.4;;
22308;SDS011;11322;50.858;-1.778;2024-03-08T22:25:33;63.2;;;23.85;;
22308;SDS011;11322;50.858;-1.778;2024-03-08T22:30:33;57.85;;;23.95;;
22308;SDS011;11322;50.858;-1.778;2024-03-08T22:35:33;62.75;;;24.95;;
22308;SDS011;11322;50.858;-1.778;2024-03-08T22:40:33;70.15;;;25.45;;
22308;SDS011;11322;50.858;-1.778;2024-03-08T22:45:33;61.55;;;21.35;;
22308;SDS011;11322;50.858;-1.778;2024-03-08T22:50:33;69.5;;;25.15;;
22308;SDS011;11322;50.858;-1.778;2024-03-08T22:55:33;71.5;;;27.0;;
22308;SDS011;11322;50.858;-1.778;2024-03-08T23:00:33;60.15;;;22.15;;
22308;SDS011;11322;50.858;-1.778;2024-03-08T23:05:33;61.45;;;23.05;;
22308;SDS011;11322;50.858;-1.778;2024-03-08T23:10:33;66.85;;;25.4;;
22308;SDS011;11322;50.858;-1.778;2024-03-08T23:15:33;71.2;;;24.8;;
22308;SDS011;11322;50.858;-1.778;2024-03-08T23:20:33;57.7;;;23.35;;
22308;SDS011;11322;50.858;-1.778;2024-03-08T23:25:33;68.25;;;28.15;;
22308;SDS011;11322;50.858;-1.778;2024-03-08T23:30:33;71.5;;;28.35;;
22308;SDS011;11322;50.858;-1.778;2024-03-08T23:35:33;60.4;;;20.5;;
22308;SDS011;11322;50.858;-1.778;2024-03-08T23:40:33;64.55;;;19.55;;
22308;SDS011;11322;50.858;-1.778;2024-03-08T23:45:33;58.4;;;22.1;;
22308;SDS011;11322;50.858;-1.778;2024-03-08T23:50:34;69.6;;;24.7;;
22308;SDS011;11322;50.858;-1.778;2024-03-08T23:55:34;64.0;;;24.75;;
